createdAt,value
2018-07-21T00:01:56.879Z,5.60
2018-07-21T00:04:26.144Z,5.30
2018-07-21T00:06:55.065Z,6.42
2018-07-21T00:09:24.194Z,5.97
2018-07-21T00:11:57.168Z,5.87
2018-07-21T00:14:26.424Z,6.97
2018-07-21T00:16:55.687Z,6.37
2018-07-21T00:19:24.916Z,5.65
2018-07-21T00:21:54.311Z,6.50
2018-07-21T00:24:24.322Z,7.25
2018-07-21T00:26:54.244Z,7.67
2018-07-21T00:29:23.905Z,5.45
2018-07-21T00:31:52.968Z,6.72
2018-07-21T00:34:22.228Z,6.80
2018-07-21T00:36:51.486Z,7.40
2018-07-21T00:39:20.764Z,8.05
2018-07-21T00:41:50.591Z,7.42
2018-07-21T00:44:20.478Z,7.42
2018-07-21T00:46:49.784Z,8.18
2018-07-21T00:49:19.090Z,9.20
2018-07-21T00:51:48.359Z,8.65
2018-07-21T00:54:17.304Z,8.48
2018-07-21T00:56:46.435Z,8.05
2018-07-21T00:59:16.148Z,8.60
2018-07-21T01:01:45.571Z,8.43
2018-07-21T01:04:14.840Z,7.08
2018-07-21T01:06:44.129Z,8.03
2018-07-21T01:09:13.401Z,7.28
2018-07-21T01:11:43.683Z,6.62
2018-07-21T01:14:12.882Z,7.42
2018-07-21T01:16:42.509Z,7.50
2018-07-21T01:19:11.831Z,7.33
2018-07-21T01:21:42.536Z,6.50
2018-07-21T01:24:11.906Z,8.75
2018-07-21T01:26:41.517Z,9.13
2018-07-21T01:29:10.821Z,8.13
2018-07-21T01:31:40.134Z,6.87
2018-07-21T01:34:10.151Z,7.08
2018-07-21T01:36:39.489Z,6.50
2018-07-21T01:39:10.192Z,8.75
2018-07-21T01:41:40.307Z,8.00
2018-07-21T01:44:10.170Z,8.08
2018-07-21T01:46:39.572Z,8.28
2018-07-21T01:49:08.882Z,7.33
2018-07-21T01:51:38.775Z,8.23
2018-07-21T01:54:08.054Z,7.33
2018-07-21T01:56:38.287Z,8.90
2018-07-21T01:59:07.607Z,8.18
2018-07-21T02:01:38.080Z,8.18
2018-07-21T02:04:07.492Z,8.45
2018-07-21T02:06:36.959Z,8.08
2018-07-21T02:09:08.566Z,7.28
2018-07-21T02:11:37.924Z,8.35
2018-07-21T02:14:07.401Z,7.90
2018-07-21T02:16:37.012Z,8.23
2018-07-21T02:19:06.248Z,8.78
2018-07-21T02:21:36.233Z,7.97
2018-07-21T02:24:05.233Z,8.25
2018-07-21T02:26:34.374Z,9.15
2018-07-21T02:29:03.668Z,8.15
2018-07-21T02:31:33.024Z,8.30
2018-07-21T02:34:03.041Z,7.40
2018-07-21T02:36:32.311Z,8.75
2018-07-21T02:39:01.573Z,9.15
2018-07-21T02:41:30.839Z,9.03
2018-07-21T02:44:00.159Z,10.80
2018-07-21T02:46:29.468Z,8.63
2018-07-21T02:49:00.115Z,9.10
2018-07-21T02:51:29.681Z,7.90
2018-07-21T02:53:58.968Z,8.68
2018-07-21T02:56:28.231Z,7.97
2018-07-21T02:58:57.469Z,7.25
2018-07-21T03:01:27.339Z,8.95
2018-07-21T03:03:57.463Z,8.50
2018-07-21T03:06:26.745Z,8.25
2018-07-21T03:08:56.028Z,8.53
2018-07-21T03:11:25.322Z,8.08
2018-07-21T03:13:54.742Z,7.00
2018-07-21T03:16:25.260Z,7.65
2018-07-21T03:18:54.554Z,7.37
2018-07-21T03:21:24.036Z,8.23
2018-07-21T03:23:53.329Z,7.70
2018-07-21T03:26:23.440Z,6.90
2018-07-21T03:28:52.647Z,7.15
2018-07-21T03:31:21.882Z,7.47
2018-07-21T03:33:51.536Z,8.70
2018-07-21T03:36:20.794Z,9.00
2018-07-21T03:38:50.939Z,8.68
2018-07-21T03:41:21.369Z,8.43
2018-07-21T03:43:50.567Z,7.30
2018-07-21T03:46:19.906Z,6.80
2018-07-21T03:48:49.311Z,8.05
2018-07-21T03:51:18.599Z,8.78
2018-07-21T03:53:48.115Z,8.43
2018-07-21T03:56:17.344Z,8.88
2018-07-21T03:58:46.543Z,9.05
2018-07-21T04:01:15.792Z,8.25
2018-07-21T04:03:44.694Z,8.45
2018-07-21T04:06:13.901Z,8.85
2018-07-21T04:08:43.024Z,8.48
2018-07-21T04:11:12.315Z,7.95
2018-07-21T04:13:42.408Z,7.80
2018-07-21T04:16:11.838Z,7.42
2018-07-21T04:18:40.896Z,8.88
2018-07-21T04:21:10.049Z,8.93
2018-07-21T04:23:39.338Z,7.83
2018-07-21T04:26:08.625Z,7.60
2018-07-21T04:28:38.315Z,8.43
2018-07-21T04:31:07.473Z,7.87
2018-07-21T04:33:36.915Z,8.95
2018-07-21T04:36:06.512Z,8.33
2018-07-21T04:38:35.864Z,8.80
2018-07-21T04:41:05.125Z,8.10
2018-07-21T04:43:34.722Z,8.53
2018-07-21T04:46:04.021Z,8.63
2018-07-21T04:48:32.937Z,9.95
2018-07-21T04:51:02.114Z,9.03
2018-07-21T04:53:31.646Z,8.80
2018-07-21T04:56:00.866Z,9.45
2018-07-21T04:58:30.220Z,9.48
2018-07-21T05:01:02.990Z,9.03
2018-07-21T05:03:32.699Z,9.90
2018-07-21T05:06:02.713Z,8.53
2018-07-21T05:08:31.985Z,11.35
2018-07-21T05:11:01.900Z,12.00
2018-07-21T05:13:31.947Z,12.30
2018-07-21T05:16:01.132Z,11.70
2018-07-21T05:18:31.128Z,10.00
2018-07-21T05:21:00.802Z,10.03
2018-07-21T05:23:31.216Z,10.95
2018-07-21T05:26:01.725Z,13.10
2018-07-21T05:28:31.070Z,11.73
2018-07-21T05:31:00.344Z,12.07
2018-07-21T05:33:30.235Z,12.65
2018-07-21T05:35:59.439Z,11.40
2018-07-21T05:38:29.391Z,12.23
2018-07-21T05:41:00.058Z,11.90
2018-07-21T05:43:29.343Z,12.07
2018-07-21T05:45:58.904Z,13.32
2018-07-21T05:48:28.172Z,13.85
2018-07-21T05:50:57.455Z,14.00
2018-07-21T05:53:26.835Z,13.93
2018-07-21T05:55:56.399Z,15.65
2018-07-21T05:58:25.934Z,16.02
2018-07-21T06:00:55.290Z,15.28
2018-07-21T06:03:24.506Z,14.78
2018-07-21T06:05:53.763Z,15.18
2018-07-21T06:08:23.020Z,14.98
2018-07-21T06:10:53.433Z,15.00
2018-07-21T06:13:22.633Z,15.28
2018-07-21T06:15:51.934Z,14.60
2018-07-21T06:18:21.872Z,15.43
2018-07-21T06:20:51.523Z,15.20
2018-07-21T06:23:21.833Z,15.72
2018-07-21T06:25:50.740Z,15.38
2018-07-21T06:28:20.224Z,14.30
2018-07-21T06:30:49.493Z,11.43
2018-07-21T06:33:19.403Z,13.30
2018-07-21T06:35:48.991Z,13.43
2018-07-21T06:38:18.275Z,14.65
2018-07-21T06:40:47.554Z,13.45
2018-07-21T06:43:16.804Z,12.63
2018-07-21T06:45:46.906Z,13.68
2018-07-21T06:48:18.849Z,12.85
2018-07-21T06:50:48.991Z,13.13
2018-07-21T06:53:18.565Z,13.72
2018-07-21T06:55:48.359Z,11.45
2018-07-21T06:58:17.627Z,13.40
2018-07-21T07:00:48.712Z,13.28
2018-07-21T07:03:18.457Z,13.75
2018-07-21T07:05:48.089Z,10.93
2018-07-21T07:08:17.368Z,13.35
2018-07-21T07:10:46.619Z,12.47
2018-07-21T07:13:16.952Z,12.60
2018-07-21T07:15:47.131Z,13.22
2018-07-21T07:18:17.349Z,12.75
2018-07-21T07:20:47.814Z,12.55
2018-07-21T07:23:18.789Z,11.10
2018-07-21T07:25:48.021Z,11.50
2018-07-21T07:28:17.280Z,12.00
2018-07-21T07:30:46.500Z,11.80
2018-07-21T07:33:15.788Z,12.70
2018-07-21T07:35:45.734Z,11.50
2018-07-21T07:38:15.132Z,15.00
2018-07-21T07:40:44.397Z,12.33
2018-07-21T07:43:13.687Z,12.23
2018-07-21T07:45:46.776Z,12.35
2018-07-21T07:48:16.120Z,12.10
2018-07-21T07:50:45.331Z,12.28
2018-07-21T07:53:14.725Z,12.93
2018-07-21T07:55:43.973Z,12.60
2018-07-21T07:58:13.483Z,13.03
2018-07-21T08:00:42.701Z,12.65
2018-07-21T08:03:11.956Z,12.88
2018-07-21T08:05:41.209Z,13.43
2018-07-21T08:08:12.012Z,12.28
2018-07-21T08:10:42.220Z,13.18
2018-07-21T08:13:12.668Z,12.98
2018-07-21T08:15:41.947Z,13.70
2018-07-21T08:18:10.974Z,12.70
2018-07-21T08:20:41.209Z,12.88
2018-07-21T08:23:11.872Z,11.93
2018-07-21T08:25:41.159Z,12.75
2018-07-21T08:28:11.887Z,13.55
2018-07-21T08:30:41.391Z,13.55
2018-07-21T08:33:12.879Z,12.30
2018-07-21T08:35:42.651Z,12.37
2018-07-21T08:38:12.094Z,11.93
2018-07-21T08:40:42.122Z,12.43
2018-07-21T08:43:11.478Z,11.10
2018-07-21T08:45:40.457Z,12.10
2018-07-21T08:48:09.587Z,12.10
2018-07-21T08:50:40.027Z,10.88
2018-07-21T08:53:14.629Z,11.12
2018-07-21T08:55:44.015Z,9.70
2018-07-21T08:58:13.363Z,9.63
2018-07-21T09:00:42.837Z,10.20
2018-07-21T09:03:12.480Z,12.18
2018-07-21T09:05:42.454Z,10.40
2018-07-21T09:08:12.444Z,9.05
2018-07-21T09:10:41.668Z,11.03
2018-07-21T09:13:11.276Z,10.20
2018-07-21T09:15:40.517Z,10.48
2018-07-21T09:18:09.541Z,12.00
2018-07-21T09:20:39.255Z,10.60
2018-07-21T09:23:11.122Z,11.50
2018-07-21T09:25:40.515Z,10.55
2018-07-21T09:28:11.179Z,13.28
2018-07-21T09:30:40.539Z,13.28
2018-07-21T09:33:10.007Z,14.05
2018-07-21T09:35:40.018Z,11.10
2018-07-21T09:38:09.421Z,10.32
2018-07-21T09:40:38.869Z,12.45
2018-07-21T09:43:09.884Z,12.50
2018-07-21T09:45:40.446Z,11.65
2018-07-21T09:48:10.117Z,13.83
2018-07-21T09:50:40.676Z,11.08
2018-07-21T09:53:10.180Z,11.78
2018-07-21T09:55:39.695Z,13.38
2018-07-21T09:58:08.943Z,11.85
2018-07-21T10:00:43.555Z,11.78
2018-07-21T10:03:13.290Z,12.85
2018-07-21T10:05:43.337Z,12.05
2018-07-21T10:08:12.737Z,12.50
2018-07-21T10:10:42.282Z,12.45
2018-07-21T10:13:11.999Z,11.15
2018-07-21T10:15:41.853Z,11.75
2018-07-21T10:18:13.423Z,12.18
2018-07-21T10:20:42.912Z,11.22
2018-07-21T10:23:12.640Z,11.05
2018-07-21T10:25:48.414Z,9.90
2018-07-21T10:28:23.414Z,10.68
2018-07-21T10:30:52.920Z,9.20
2018-07-21T10:33:24.002Z,10.13
2018-07-21T10:35:53.791Z,9.73
2018-07-21T10:38:24.098Z,10.03
2018-07-21T10:40:55.207Z,8.63
2018-07-21T10:43:24.460Z,7.45
2018-07-21T10:45:53.768Z,7.58
2018-07-21T10:48:23.333Z,8.05
2018-07-21T10:50:53.632Z,8.95
2018-07-21T10:53:22.798Z,7.10
2018-07-21T10:55:53.045Z,7.17
2018-07-21T10:58:23.054Z,7.92
2018-07-21T11:00:52.511Z,7.62
2018-07-21T11:03:21.789Z,8.20
2018-07-21T11:05:51.304Z,8.85
2018-07-21T11:08:20.571Z,7.35
2018-07-21T11:10:49.854Z,8.60
2018-07-21T11:13:20.723Z,9.85
2018-07-21T11:15:50.424Z,8.48
2018-07-21T11:18:20.175Z,7.45
2018-07-21T11:20:50.399Z,8.90
2018-07-21T11:23:20.187Z,9.40
2018-07-21T11:25:49.581Z,9.48
2018-07-21T11:28:19.279Z,8.65
2018-07-21T11:30:50.488Z,7.78
2018-07-21T11:33:20.267Z,7.95
2018-07-21T11:35:53.591Z,8.33
2018-07-21T11:38:28.079Z,9.43
2018-07-21T11:40:57.366Z,8.38
2018-07-21T11:43:27.220Z,7.45
2018-07-21T11:45:59.002Z,9.20
2018-07-21T11:48:27.982Z,7.28
2018-07-21T11:51:01.550Z,8.75
2018-07-21T11:53:32.259Z,7.08
2018-07-21T11:56:01.631Z,8.20
2018-07-21T11:58:31.922Z,8.08
2018-07-21T12:01:01.150Z,9.15
2018-07-21T12:03:31.688Z,8.45
2018-07-21T12:06:01.779Z,8.78
2018-07-21T12:08:31.250Z,8.23
2018-07-21T12:11:01.006Z,8.45
2018-07-21T12:13:30.415Z,7.25
2018-07-21T12:16:00.249Z,7.90
2018-07-21T12:18:30.659Z,8.53
2018-07-21T12:21:01.612Z,8.18
2018-07-21T12:23:31.366Z,8.90
2018-07-21T12:26:02.256Z,8.33
2018-07-21T12:28:34.015Z,7.58
2018-07-21T12:31:06.599Z,8.28
2018-07-21T12:33:37.349Z,7.42
2018-07-21T12:36:08.316Z,7.42
2018-07-21T12:38:38.489Z,7.37
2018-07-21T12:41:09.603Z,7.80
2018-07-21T12:43:39.243Z,7.40
2018-07-21T12:46:08.543Z,7.83
2018-07-21T12:48:37.834Z,8.18
2018-07-21T12:51:07.111Z,9.15
2018-07-21T12:53:36.453Z,7.70
2018-07-21T12:56:06.871Z,8.00
2018-07-21T12:58:36.110Z,7.22
2018-07-21T13:01:05.756Z,7.62
2018-07-21T13:03:36.067Z,7.92
2018-07-21T13:06:06.283Z,8.65
2018-07-21T13:08:35.524Z,7.75
2018-07-21T13:11:04.772Z,7.62
2018-07-21T13:13:34.281Z,8.30
2018-07-21T13:16:03.969Z,8.28
2018-07-21T13:18:33.333Z,9.25
2018-07-21T13:21:02.599Z,7.95
2018-07-21T13:23:31.862Z,8.18
2018-07-21T13:26:00.858Z,8.25
2018-07-21T13:28:30.854Z,8.08
2018-07-21T13:31:05.510Z,8.60
2018-07-21T13:33:35.248Z,8.20
2018-07-21T13:36:04.496Z,8.85
2018-07-21T13:38:34.425Z,7.83
2018-07-21T13:41:03.822Z,8.23
2018-07-21T13:43:33.070Z,8.90
2018-07-21T13:46:02.352Z,9.20
2018-07-21T13:48:32.557Z,8.40
2018-07-21T13:51:02.053Z,8.98
2018-07-21T13:53:31.300Z,9.78
2018-07-21T13:56:00.791Z,9.30
2018-07-21T13:58:30.355Z,9.68
2018-07-21T14:00:59.673Z,7.78
2018-07-21T14:03:29.033Z,7.80
2018-07-21T14:05:59.375Z,8.43
2018-07-21T14:08:28.993Z,8.78
2018-07-21T14:10:58.254Z,8.13
2018-07-21T14:13:28.673Z,7.58
2018-07-21T14:16:02.749Z,10.70
2018-07-21T14:18:37.151Z,8.83
2018-07-21T14:21:06.416Z,8.15
2018-07-21T14:23:37.020Z,7.03
2018-07-21T14:26:06.545Z,7.90
2018-07-21T14:28:37.223Z,8.35
2018-07-21T14:31:10.944Z,7.83
2018-07-21T14:33:41.783Z,8.80
2018-07-21T14:36:11.141Z,7.97
2018-07-21T14:38:41.403Z,8.15
2018-07-21T14:41:10.749Z,8.18
2018-07-21T14:43:46.178Z,8.10
2018-07-21T14:46:15.491Z,8.80
2018-07-21T14:48:45.468Z,7.70
2018-07-21T14:51:15.804Z,9.80
2018-07-21T14:53:50.706Z,7.80
2018-07-21T14:56:22.465Z,7.33
2018-07-21T14:58:53.407Z,6.55
2018-07-21T15:01:24.531Z,6.62
2018-07-21T15:03:54.793Z,7.85
2018-07-21T15:06:26.748Z,8.73
2018-07-21T15:08:57.672Z,7.92
2018-07-21T15:11:27.890Z,8.83
2018-07-21T15:13:57.607Z,8.88
2018-07-21T15:16:27.496Z,8.40
2018-07-21T15:18:58.456Z,8.98
2018-07-21T15:21:29.227Z,9.30
2018-07-21T15:23:58.660Z,7.75
2018-07-21T15:26:32.109Z,11.95
2018-07-21T15:29:01.930Z,11.00
2018-07-21T15:31:35.157Z,10.95
2018-07-21T15:34:06.759Z,11.97
2018-07-21T15:36:37.406Z,12.47
2018-07-21T15:39:10.643Z,13.50
2018-07-21T15:41:41.019Z,13.68
2018-07-21T15:44:13.493Z,11.20
2018-07-21T15:46:43.369Z,15.13
2018-07-21T15:49:17.553Z,13.88
2018-07-21T15:51:46.984Z,15.05
2018-07-21T15:54:16.494Z,15.32
2018-07-21T15:56:46.221Z,15.35
2018-07-21T15:59:20.426Z,14.00
2018-07-21T16:01:51.883Z,16.82
2018-07-21T16:04:22.055Z,18.65
2018-07-21T16:09:31.924Z,17.30
2018-07-21T16:12:00.814Z,14.58
2018-07-21T16:14:30.735Z,17.48
2018-07-21T16:17:02.092Z,13.93
2018-07-21T16:19:31.524Z,15.35
2018-07-21T16:22:01.436Z,16.77
2018-07-21T16:24:37.109Z,14.20
2018-07-21T16:27:06.640Z,12.82
2018-07-21T16:29:36.017Z,13.48
2018-07-21T16:32:05.299Z,14.23
2018-07-21T16:34:34.645Z,13.50
2018-07-21T16:37:06.501Z,13.50
2018-07-21T16:39:36.084Z,13.62
2018-07-21T16:42:05.539Z,15.60
2018-07-21T16:44:35.517Z,15.55
2018-07-21T16:47:05.336Z,14.28
2018-07-21T16:49:36.568Z,13.75
2018-07-21T16:52:11.195Z,16.20
2018-07-21T16:54:41.464Z,13.78
2018-07-21T16:57:16.409Z,13.58
2018-07-21T16:59:45.668Z,13.10
2018-07-21T17:02:17.156Z,14.35
2018-07-21T17:04:49.448Z,13.95
2018-07-21T17:07:19.506Z,11.90
2018-07-21T17:09:48.791Z,14.70
2018-07-21T17:12:19.180Z,16.50
2018-07-21T17:14:49.886Z,16.45
2018-07-21T17:17:20.196Z,17.27
2018-07-21T17:19:50.322Z,16.37
2018-07-21T17:22:20.511Z,15.98
2018-07-21T17:24:52.871Z,15.05
2018-07-21T17:27:23.235Z,14.60
2018-07-21T17:29:52.409Z,16.37
2018-07-21T17:32:23.752Z,16.10
2018-07-21T17:34:54.440Z,14.28
2018-07-21T17:37:24.408Z,13.93
2018-07-21T17:39:56.238Z,14.18
2018-07-21T17:42:27.343Z,14.60
2018-07-21T17:44:57.083Z,14.07
2018-07-21T17:47:27.909Z,16.05
2018-07-21T17:49:58.256Z,14.43
2018-07-21T17:52:29.833Z,14.98
2018-07-21T17:55:01.745Z,13.90
2018-07-21T17:57:31.734Z,13.98
2018-07-21T18:00:05.545Z,14.35
2018-07-21T18:02:38.664Z,14.53
2018-07-21T18:05:11.121Z,14.35
2018-07-21T18:07:46.722Z,14.47
2018-07-21T18:10:19.448Z,15.00
2018-07-21T18:12:51.627Z,14.20
2018-07-21T18:15:23.025Z,13.38
2018-07-21T18:17:53.312Z,13.43
2018-07-21T18:20:29.174Z,13.13
2018-07-21T18:23:08.044Z,11.50
2018-07-21T18:25:39.427Z,11.18
2018-07-21T18:28:09.570Z,10.68
2018-07-21T18:30:44.182Z,11.20
2018-07-21T18:33:14.001Z,11.95
2018-07-21T18:35:53.126Z,12.00
2018-07-21T18:38:25.020Z,10.93
2018-07-21T18:40:59.004Z,10.78
2018-07-21T18:43:33.331Z,11.30
2018-07-21T18:46:06.402Z,9.80
2018-07-21T18:48:38.353Z,10.72
2018-07-21T18:51:10.346Z,10.38
2018-07-21T18:53:41.508Z,11.30
2018-07-21T18:56:12.659Z,10.00
2018-07-21T18:58:41.970Z,9.65
2018-07-21T19:01:14.126Z,9.50
2018-07-21T19:03:43.423Z,10.50
2018-07-21T19:06:14.348Z,9.83
2018-07-21T19:08:51.774Z,9.10
2018-07-21T19:11:23.286Z,8.85
2018-07-21T19:13:54.012Z,9.33
2018-07-21T19:16:40.535Z,9.08
2018-07-21T19:19:10.767Z,8.43
2018-07-21T19:21:46.214Z,9.08
2018-07-21T19:24:22.455Z,8.70
2018-07-21T19:26:59.531Z,8.50
2018-07-21T19:29:31.988Z,8.43
2018-07-21T19:32:07.590Z,8.88
2018-07-21T19:34:41.408Z,8.58
2018-07-21T19:37:17.965Z,9.65
2018-07-21T19:39:48.342Z,7.58
2018-07-21T19:42:19.822Z,8.98
2018-07-21T19:44:52.037Z,8.95
2018-07-21T19:47:22.625Z,8.70
2018-07-21T19:49:52.730Z,10.10
2018-07-21T19:52:21.931Z,9.55
2018-07-21T19:54:50.744Z,8.93
2018-07-21T19:57:19.919Z,9.65
2018-07-21T19:59:49.379Z,9.58
2018-07-21T20:02:19.452Z,10.10
2018-07-21T20:04:54.279Z,9.98
2018-07-21T20:07:23.475Z,11.95
2018-07-21T20:09:53.953Z,11.28
2018-07-21T20:12:24.439Z,11.50
2018-07-21T20:14:53.807Z,12.90
2018-07-21T20:17:27.448Z,14.20
2018-07-21T20:20:00.082Z,12.88
2018-07-21T20:22:32.427Z,15.83
2018-07-21T20:25:01.831Z,17.05
2018-07-21T20:27:31.680Z,15.98
2018-07-21T20:30:05.720Z,16.67
2018-07-21T20:32:43.849Z,17.87
2018-07-21T20:35:12.760Z,15.38
2018-07-21T20:37:41.904Z,16.05
2018-07-21T20:40:11.588Z,17.32
2018-07-21T20:42:41.940Z,18.55
2018-07-21T20:45:13.135Z,16.12
2018-07-21T20:47:42.994Z,17.77
2018-07-21T20:50:12.676Z,16.97
2018-07-21T20:52:42.047Z,17.95
2018-07-21T20:55:11.568Z,18.35
2018-07-21T20:57:47.004Z,17.55
2018-07-21T21:00:16.728Z,19.27
2018-07-21T21:02:50.308Z,18.67
2018-07-21T21:05:19.634Z,20.35
2018-07-21T21:10:24.098Z,18.30
2018-07-21T21:12:54.230Z,18.15
2018-07-21T21:15:23.120Z,19.98
2018-07-21T21:17:52.980Z,18.92
2018-07-21T21:20:22.523Z,18.42
2018-07-21T21:22:58.357Z,17.52
2018-07-21T21:25:32.326Z,17.12
2018-07-21T21:28:10.461Z,18.45
2018-07-21T21:30:39.991Z,18.65
2018-07-21T21:33:09.274Z,21.37
2018-07-21T21:35:41.537Z,19.45
2018-07-21T21:38:12.880Z,20.08
2018-07-21T21:40:42.148Z,20.02
2018-07-21T21:43:13.535Z,20.32
2018-07-21T21:45:43.462Z,20.08
2018-07-21T21:48:13.024Z,20.05
2018-07-21T21:50:43.032Z,19.17
2018-07-21T21:53:12.738Z,21.07
2018-07-21T21:55:46.595Z,20.08
2018-07-21T21:58:28.852Z,20.90
2018-07-21T22:01:06.672Z,21.70
2018-07-21T22:03:42.135Z,21.02
2018-07-21T22:06:12.046Z,21.77
2018-07-21T22:08:41.622Z,22.62
2018-07-21T22:11:11.006Z,22.13
2018-07-21T22:13:41.279Z,20.88
2018-07-21T22:16:12.750Z,20.90
2018-07-21T22:18:41.705Z,21.62
2018-07-21T22:21:11.598Z,21.05
2018-07-21T22:23:41.542Z,20.55
2018-07-21T22:26:14.993Z,22.85
2018-07-21T22:28:52.185Z,21.20
2018-07-21T22:31:22.427Z,19.80
2018-07-21T22:33:58.583Z,20.57
2018-07-21T22:36:31.080Z,20.05
2018-07-21T22:39:01.801Z,19.42
2018-07-21T22:41:35.451Z,18.50
2018-07-21T22:44:05.085Z,17.50
2018-07-21T22:49:05.011Z,16.07
2018-07-21T22:51:33.959Z,16.40
2018-07-21T22:54:03.112Z,15.68
2018-07-21T22:56:34.192Z,15.48
2018-07-21T22:59:16.818Z,14.45
2018-07-21T23:01:46.638Z,14.43
2018-07-21T23:04:17.190Z,14.73
2018-07-21T23:06:48.083Z,14.63
2018-07-21T23:09:23.266Z,15.93
2018-07-21T23:11:52.540Z,14.38
2018-07-21T23:14:22.067Z,16.25
2018-07-21T23:16:51.275Z,15.03
2018-07-21T23:19:21.499Z,12.25
2018-07-21T23:21:53.564Z,15.20
2018-07-21T23:24:23.393Z,14.00
2018-07-21T23:26:53.382Z,13.58
2018-07-21T23:29:27.477Z,13.78
2018-07-21T23:31:57.626Z,13.93
2018-07-21T23:34:27.095Z,13.80
2018-07-21T23:39:32.880Z,17.12
2018-07-21T23:42:02.139Z,15.45
2018-07-21T23:44:32.800Z,15.50
2018-07-21T23:47:02.451Z,15.58
2018-07-21T23:49:33.804Z,14.05
2018-07-21T23:52:06.131Z,13.80
2018-07-21T23:54:35.431Z,14.47
2018-07-21T23:57:06.524Z,13.75
2018-07-21T23:59:37.551Z,13.08
